Portada
METAR-TAF:

METAR-TAF

Aeroports :

Grozni, Rússia

latitud: 43-23-18N, longitud: 045-41-59E, altitud: 167 m

Observació

L'informe es va fer fa 28 minuts, a les 22:00 UTC
Vent 4 kt del Est/Sud-Est
Temperatura -2°C
Humitat 93%
Pressió 1020 hPa
Visibilitat: 0800 m
Núvols disperses a una alçada de 800 ft
boira gebradora

METAR: URMG 092200Z 12002MPS 2600 0800E R26/1500U FZFG SCT008 M02/M03 Q1020 R26/190060 NOSIG RMK MT OBSC OBST OBSC QFE750/1000

Hora: 01:28 (22:28 UTC)

Pronòstic

L'informe es va fer fa 2 hores i 28 minuts, a les 20:00 UTC
Pronòstic vàlid del 09 a les 21 UTC al 10 a les 06 UTC
Vent 6 kt del Nord-Oest amb ràfegues de 16 kt
Visibilitat: 5000 m
Núvols disperses a una alçada de 1500 ft
boirina
Temporalment
l' 09 a les 21 UTC al 10 a les 06 UTC
Vent 2 kt amb direcció variable
Visibilitat: 0300 m
Cel ennuvolat a una alçada de 200 ft
boira gebradora

TAF: URMG 092000Z 0921/1006 32003G08MPS 5000 BR SCT015 TEMPO 0921/1006 VRB01MPS 0300 FZFG BKN002

Observacions i pronòstics meteorològics de més de 4000 aeroports (METAR i TAF).

Les estacions disponibles són els punts grocs i vermells al mapa.

Posi el ratolí al punt desitjat per veure el nom de l'estació.

Feu clic per veure les observacions i els pronòstics meteorològics.

Per canviar el mapa: feu clic els botons verds amb una creu de color negre per apropar; al botó verd amb un guió per allunyar la imatge; o en les fletxes verdes per a mapes adjacents.


METAR-TAF: